sensor_id;sensor_type;location;lat;lon;timestamp;P1;durP1;ratioP1;P2;durP2;ratioP2
23159;SDS011;11748;50.844;4.396;2022-09-02T00:01:18;2.58;;;1.50;;
23159;SDS011;11748;50.844;4.396;2022-09-02T00:03:55;3.67;;;1.80;;
23159;SDS011;11748;50.844;4.396;2022-09-02T00:06:24;4.40;;;1.80;;
23159;SDS011;11748;50.844;4.396;2022-09-02T00:08:50;2.50;;;1.80;;
23159;SDS011;11748;50.844;4.396;2022-09-02T00:11:17;2.47;;;1.70;;
23159;SDS011;11748;50.844;4.396;2022-09-02T00:13:45;6.47;;;1.80;;
23159;SDS011;11748;50.844;4.396;2022-09-02T00:16:12;3.05;;;1.73;;
23159;SDS011;11748;50.844;4.396;2022-09-02T00:18:46;2.22;;;1.77;;
23159;SDS011;11748;50.844;4.396;2022-09-02T00:21:13;6.03;;;1.90;;
23159;SDS011;11748;50.844;4.396;2022-09-02T00:23:39;5.22;;;2.05;;
23159;SDS011;11748;50.844;4.396;2022-09-02T00:26:06;3.67;;;1.90;;
23159;SDS011;11748;50.844;4.396;2022-09-02T00:28:32;2.35;;;1.60;;
23159;SDS011;11748;50.844;4.396;2022-09-02T00:30:58;2.88;;;1.70;;
23159;SDS011;11748;50.844;4.396;2022-09-02T00:33:24;3.65;;;1.85;;
23159;SDS011;11748;50.844;4.396;2022-09-02T00:35:49;6.70;;;1.98;;
23159;SDS011;11748;50.844;4.396;2022-09-02T00:38:21;4.47;;;1.60;;
23159;SDS011;11748;50.844;4.396;2022-09-02T00:40:49;2.85;;;1.90;;
23159;SDS011;11748;50.844;4.396;2022-09-02T00:46:13;5.75;;;1.50;;
23159;SDS011;11748;50.844;4.396;2022-09-02T00:54:00;4.15;;;1.90;;
23159;SDS011;11748;50.844;4.396;2022-09-02T00:56:29;3.78;;;1.73;;
23159;SDS011;11748;50.844;4.396;2022-09-02T00:58:56;2.25;;;1.63;;
23159;SDS011;11748;50.844;4.396;2022-09-02T01:01:23;3.85;;;2.03;;
23159;SDS011;11748;50.844;4.396;2022-09-02T01:03:49;5.85;;;2.00;;
23159;SDS011;11748;50.844;4.396;2022-09-02T01:06:17;4.53;;;1.80;;
23159;SDS011;11748;50.844;4.396;2022-09-02T01:08:50;4.43;;;2.08;;
23159;SDS011;11748;50.844;4.396;2022-09-02T01:11:21;6.05;;;2.08;;
23159;SDS011;11748;50.844;4.396;2022-09-02T01:13:47;3.70;;;1.85;;
23159;SDS011;11748;50.844;4.396;2022-09-02T01:16:16;3.47;;;1.75;;
23159;SDS011;11748;50.844;4.396;2022-09-02T01:18:52;4.43;;;1.98;;
23159;SDS011;11748;50.844;4.396;2022-09-02T01:21:19;4.30;;;2.00;;
23159;SDS011;11748;50.844;4.396;2022-09-02T01:23:48;3.30;;;1.75;;
23159;SDS011;11748;50.844;4.396;2022-09-02T01:26:17;4.55;;;2.00;;
23159;SDS011;11748;50.844;4.396;2022-09-02T01:28:43;3.30;;;1.85;;
23159;SDS011;11748;50.844;4.396;2022-09-02T01:31:15;2.95;;;1.70;;
23159;SDS011;11748;50.844;4.396;2022-09-02T01:36:34;4.47;;;1.88;;
23159;SDS011;11748;50.844;4.396;2022-09-02T01:39:05;4.55;;;2.15;;
23159;SDS011;11748;50.844;4.396;2022-09-02T01:41:32;4.40;;;2.03;;
23159;SDS011;11748;50.844;4.396;2022-09-02T01:43:58;3.38;;;2.10;;
23159;SDS011;11748;50.844;4.396;2022-09-02T01:46:24;4.10;;;1.95;;
23159;SDS011;11748;50.844;4.396;2022-09-02T01:48:50;3.90;;;1.90;;
23159;SDS011;11748;50.844;4.396;2022-09-02T01:51:16;3.65;;;1.75;;
23159;SDS011;11748;50.844;4.396;2022-09-02T01:53:44;5.93;;;2.10;;
23159;SDS011;11748;50.844;4.396;2022-09-02T01:56:10;3.28;;;2.05;;
23159;SDS011;11748;50.844;4.396;2022-09-02T01:58:36;8.75;;;2.13;;
23159;SDS011;11748;50.844;4.396;2022-09-02T02:01:02;4.38;;;2.20;;
23159;SDS011;11748;50.844;4.396;2022-09-02T02:03:30;3.08;;;1.65;;
23159;SDS011;11748;50.844;4.396;2022-09-02T02:05:56;4.18;;;2.10;;
23159;SDS011;11748;50.844;4.396;2022-09-02T02:08:22;3.55;;;1.83;;
23159;SDS011;11748;50.844;4.396;2022-09-02T02:10:48;6.60;;;1.85;;
23159;SDS011;11748;50.844;4.396;2022-09-02T02:13:14;6.95;;;1.90;;
23159;SDS011;11748;50.844;4.396;2022-09-02T02:15:40;4.10;;;2.28;;
23159;SDS011;11748;50.844;4.396;2022-09-02T02:18:07;4.40;;;2.20;;
23159;SDS011;11748;50.844;4.396;2022-09-02T02:20:34;2.83;;;2.22;;
23159;SDS011;11748;50.844;4.396;2022-09-02T02:23:01;8.88;;;2.13;;
23159;SDS011;11748;50.844;4.396;2022-09-02T02:28:22;3.97;;;2.05;;
23159;SDS011;11748;50.844;4.396;2022-09-02T02:33:19;3.92;;;2.22;;
23159;SDS011;11748;50.844;4.396;2022-09-02T02:38:35;7.05;;;2.38;;
23159;SDS011;11748;50.844;4.396;2022-09-02T02:44:16;3.92;;;2.10;;
23159;SDS011;11748;50.844;4.396;2022-09-02T02:46:44;5.15;;;2.55;;
23159;SDS011;11748;50.844;4.396;2022-09-02T02:49:10;3.60;;;2.38;;
23159;SDS011;11748;50.844;4.396;2022-09-02T02:51:36;6.90;;;2.80;;
23159;SDS011;11748;50.844;4.396;2022-09-02T02:54:03;4.32;;;2.22;;
23159;SDS011;11748;50.844;4.396;2022-09-02T02:56:30;5.45;;;2.40;;
23159;SDS011;11748;50.844;4.396;2022-09-02T02:58:57;5.55;;;2.25;;
23159;SDS011;11748;50.844;4.396;2022-09-02T03:01:27;3.55;;;1.92;;
23159;SDS011;11748;50.844;4.396;2022-09-02T03:03:56;3.78;;;2.30;;
23159;SDS011;11748;50.844;4.396;2022-09-02T03:06:22;4.57;;;2.35;;
23159;SDS011;11748;50.844;4.396;2022-09-02T03:08:48;5.45;;;2.15;;
23159;SDS011;11748;50.844;4.396;2022-09-02T03:11:15;6.00;;;2.38;;
23159;SDS011;11748;50.844;4.396;2022-09-02T03:13:41;3.63;;;2.65;;
23159;SDS011;11748;50.844;4.396;2022-09-02T03:16:13;5.07;;;2.63;;
23159;SDS011;11748;50.844;4.396;2022-09-02T03:18:39;5.20;;;2.50;;
23159;SDS011;11748;50.844;4.396;2022-09-02T03:21:08;3.28;;;2.25;;
23159;SDS011;11748;50.844;4.396;2022-09-02T03:23:34;3.88;;;2.78;;
23159;SDS011;11748;50.844;4.396;2022-09-02T03:26:01;5.95;;;2.55;;
23159;SDS011;11748;50.844;4.396;2022-09-02T03:28:28;7.70;;;2.63;;
23159;SDS011;11748;50.844;4.396;2022-09-02T03:30:54;3.80;;;2.63;;
23159;SDS011;11748;50.844;4.396;2022-09-02T03:33:20;4.00;;;2.22;;
23159;SDS011;11748;50.844;4.396;2022-09-02T03:35:46;5.30;;;2.30;;
23159;SDS011;11748;50.844;4.396;2022-09-02T03:38:12;4.50;;;2.42;;
23159;SDS011;11748;50.844;4.396;2022-09-02T03:40:43;3.70;;;3.10;;
23159;SDS011;11748;50.844;4.396;2022-09-02T03:53:30;4.72;;;2.70;;
23159;SDS011;11748;50.844;4.396;2022-09-02T03:56:03;4.45;;;2.65;;
23159;SDS011;11748;50.844;4.396;2022-09-02T03:58:43;3.45;;;2.72;;
23159;SDS011;11748;50.844;4.396;2022-09-02T04:01:24;4.90;;;2.40;;
23159;SDS011;11748;50.844;4.396;2022-09-02T04:03:51;4.25;;;2.60;;
23159;SDS011;11748;50.844;4.396;2022-09-02T04:06:19;6.43;;;2.67;;
23159;SDS011;11748;50.844;4.396;2022-09-02T04:08:56;5.40;;;2.80;;
23159;SDS011;11748;50.844;4.396;2022-09-02T04:14:08;7.95;;;3.10;;
23159;SDS011;11748;50.844;4.396;2022-09-02T04:16:41;4.85;;;2.67;;
23159;SDS011;11748;50.844;4.396;2022-09-02T04:19:07;4.22;;;2.92;;
23159;SDS011;11748;50.844;4.396;2022-09-02T04:21:34;6.38;;;2.97;;
23159;SDS011;11748;50.844;4.396;2022-09-02T04:24:02;6.20;;;2.90;;
23159;SDS011;11748;50.844;4.396;2022-09-02T04:26:32;8.35;;;3.33;;
23159;SDS011;11748;50.844;4.396;2022-09-02T04:29:04;6.20;;;3.10;;
23159;SDS011;11748;50.844;4.396;2022-09-02T04:31:34;4.20;;;2.85;;
23159;SDS011;11748;50.844;4.396;2022-09-02T04:36:41;8.43;;;3.30;;
23159;SDS011;11748;50.844;4.396;2022-09-02T04:44:19;5.50;;;2.72;;
23159;SDS011;11748;50.844;4.396;2022-09-02T04:46:45;4.72;;;2.83;;
23159;SDS011;11748;50.844;4.396;2022-09-02T04:49:13;6.38;;;3.35;;
23159;SDS011;11748;50.844;4.396;2022-09-02T04:51:39;4.20;;;3.00;;
23159;SDS011;11748;50.844;4.396;2022-09-02T04:54:04;4.78;;;3.28;;
23159;SDS011;11748;50.844;4.396;2022-09-02T04:56:31;7.05;;;3.50;;
23159;SDS011;11748;50.844;4.396;2022-09-02T04:58:57;5.60;;;3.00;;
23159;SDS011;11748;50.844;4.396;2022-09-02T05:01:24;6.00;;;3.58;;
23159;SDS011;11748;50.844;4.396;2022-09-02T05:03:53;6.30;;;3.65;;
23159;SDS011;11748;50.844;4.396;2022-09-02T05:06:20;3.42;;;3.13;;
23159;SDS011;11748;50.844;4.396;2022-09-02T05:08:50;6.70;;;3.45;;
23159;SDS011;11748;50.844;4.396;2022-09-02T05:11:17;4.35;;;3.15;;
23159;SDS011;11748;50.844;4.396;2022-09-02T05:13:45;5.65;;;3.85;;
23159;SDS011;11748;50.844;4.396;2022-09-02T05:16:16;4.05;;;3.10;;
23159;SDS011;11748;50.844;4.396;2022-09-02T05:18:44;7.57;;;3.25;;
23159;SDS011;11748;50.844;4.396;2022-09-02T05:21:11;5.50;;;3.65;;
23159;SDS011;11748;50.844;4.396;2022-09-02T05:23:38;10.88;;;3.58;;
23159;SDS011;11748;50.844;4.396;2022-09-02T05:26:07;5.90;;;3.40;;
23159;SDS011;11748;50.844;4.396;2022-09-02T05:28:34;5.65;;;3.17;;
23159;SDS011;11748;50.844;4.396;2022-09-02T05:31:04;4.72;;;3.50;;
23159;SDS011;11748;50.844;4.396;2022-09-02T05:33:35;5.88;;;3.08;;
23159;SDS011;11748;50.844;4.396;2022-09-02T05:36:03;6.30;;;3.38;;
23159;SDS011;11748;50.844;4.396;2022-09-02T05:38:30;6.65;;;3.28;;
23159;SDS011;11748;50.844;4.396;2022-09-02T05:41:17;3.67;;;3.30;;
23159;SDS011;11748;50.844;4.396;2022-09-02T05:47:09;6.00;;;3.22;;
23159;SDS011;11748;50.844;4.396;2022-09-02T06:01:54;6.13;;;3.53;;
23159;SDS011;11748;50.844;4.396;2022-09-02T06:07:43;4.60;;;3.28;;
23159;SDS011;11748;50.844;4.396;2022-09-02T06:10:15;5.22;;;3.35;;
23159;SDS011;11748;50.844;4.396;2022-09-02T06:12:49;5.35;;;3.55;;
23159;SDS011;11748;50.844;4.396;2022-09-02T06:15:27;7.50;;;3.40;;
23159;SDS011;11748;50.844;4.396;2022-09-02T06:17:57;7.15;;;3.53;;
23159;SDS011;11748;50.844;4.396;2022-09-02T06:20:30;5.00;;;3.40;;
23159;SDS011;11748;50.844;4.396;2022-09-02T06:22:58;7.10;;;3.65;;
23159;SDS011;11748;50.844;4.396;2022-09-02T06:25:24;6.40;;;3.45;;
23159;SDS011;11748;50.844;4.396;2022-09-02T06:27:53;9.00;;;3.60;;
23159;SDS011;11748;50.844;4.396;2022-09-02T06:30:20;9.32;;;3.83;;
23159;SDS011;11748;50.844;4.396;2022-09-02T06:32:47;7.82;;;3.60;;
23159;SDS011;11748;50.844;4.396;2022-09-02T06:37:43;8.07;;;3.55;;
23159;SDS011;11748;50.844;4.396;2022-09-02T06:40:11;3.95;;;2.90;;
23159;SDS011;11748;50.844;4.396;2022-09-02T06:45:13;6.68;;;3.67;;
23159;SDS011;11748;50.844;4.396;2022-09-02T06:55:15;9.95;;;3.92;;
23159;SDS011;11748;50.844;4.396;2022-09-02T06:57:42;13.60;;;4.15;;
23159;SDS011;11748;50.844;4.396;2022-09-02T07:02:37;5.88;;;3.10;;
23159;SDS011;11748;50.844;4.396;2022-09-02T07:05:04;6.63;;;3.10;;
23159;SDS011;11748;50.844;4.396;2022-09-02T07:07:40;8.60;;;3.38;;
23159;SDS011;11748;50.844;4.396;2022-09-02T07:15:23;3.78;;;2.97;;
23159;SDS011;11748;50.844;4.396;2022-09-02T07:17:49;10.60;;;3.20;;
23159;SDS011;11748;50.844;4.396;2022-09-02T07:20:30;9.38;;;3.30;;
23159;SDS011;11748;50.844;4.396;2022-09-02T07:25:26;5.43;;;3.13;;
23159;SDS011;11748;50.844;4.396;2022-09-02T07:27:57;5.97;;;3.00;;
23159;SDS011;11748;50.844;4.396;2022-09-02T07:30:26;7.32;;;3.10;;
23159;SDS011;11748;50.844;4.396;2022-09-02T07:32:55;4.30;;;3.05;;
23159;SDS011;11748;50.844;4.396;2022-09-02T07:35:24;4.30;;;2.88;;
23159;SDS011;11748;50.844;4.396;2022-09-02T07:37:56;3.95;;;2.75;;
23159;SDS011;11748;50.844;4.396;2022-09-02T07:40:28;6.68;;;2.85;;
23159;SDS011;11748;50.844;4.396;2022-09-02T07:42:54;3.90;;;2.70;;
23159;SDS011;11748;50.844;4.396;2022-09-02T07:47:52;5.53;;;2.90;;
23159;SDS011;11748;50.844;4.396;2022-09-02T07:50:25;7.78;;;3.10;;
23159;SDS011;11748;50.844;4.396;2022-09-02T07:52:57;3.90;;;2.85;;
23159;SDS011;11748;50.844;4.396;2022-09-02T07:55:23;3.78;;;3.28;;
23159;SDS011;11748;50.844;4.396;2022-09-02T08:00:19;6.07;;;3.05;;
23159;SDS011;11748;50.844;4.396;2022-09-02T08:05:40;4.93;;;3.20;;
23159;SDS011;11748;50.844;4.396;2022-09-02T08:08:11;7.55;;;2.85;;
23159;SDS011;11748;50.844;4.396;2022-09-02T08:10:52;3.80;;;3.03;;
23159;SDS011;11748;50.844;4.396;2022-09-02T08:13:19;5.70;;;3.65;;
23159;SDS011;11748;50.844;4.396;2022-09-02T08:15:46;5.22;;;3.10;;
23159;SDS011;11748;50.844;4.396;2022-09-02T08:18:12;5.32;;;3.17;;
23159;SDS011;11748;50.844;4.396;2022-09-02T08:20:38;3.08;;;2.78;;
23159;SDS011;11748;50.844;4.396;2022-09-02T08:23:07;5.75;;;2.97;;
23159;SDS011;11748;50.844;4.396;2022-09-02T08:25:38;4.35;;;2.92;;
23159;SDS011;11748;50.844;4.396;2022-09-02T08:28:07;5.80;;;2.97;;
23159;SDS011;11748;50.844;4.396;2022-09-02T08:30:33;6.05;;;2.88;;
23159;SDS011;11748;50.844;4.396;2022-09-02T08:33:01;6.55;;;2.72;;
23159;SDS011;11748;50.844;4.396;2022-09-02T08:35:33;9.30;;;3.08;;
23159;SDS011;11748;50.844;4.396;2022-09-02T08:40:36;5.78;;;2.97;;
23159;SDS011;11748;50.844;4.396;2022-09-02T08:43:26;3.90;;;3.15;;
23159;SDS011;11748;50.844;4.396;2022-09-02T08:48:37;5.65;;;2.92;;
23159;SDS011;11748;50.844;4.396;2022-09-02T08:51:07;4.25;;;3.00;;
23159;SDS011;11748;50.844;4.396;2022-09-02T08:58:59;8.02;;;2.75;;
23159;SDS011;11748;50.844;4.396;2022-09-02T09:01:44;10.50;;;2.83;;
23159;SDS011;11748;50.844;4.396;2022-09-02T09:18:56;5.13;;;2.67;;
23159;SDS011;11748;50.844;4.396;2022-09-02T09:27:09;4.03;;;3.10;;
23159;SDS011;11748;50.844;4.396;2022-09-02T09:29:37;5.78;;;2.83;;
23159;SDS011;11748;50.844;4.396;2022-09-02T09:32:03;5.60;;;2.30;;
23159;SDS011;11748;50.844;4.396;2022-09-02T09:37:38;6.30;;;3.33;;
23159;SDS011;11748;50.844;4.396;2022-09-02T09:45:36;7.10;;;2.67;;
23159;SDS011;11748;50.844;4.396;2022-09-02T09:55:52;4.72;;;2.42;;
23159;SDS011;11748;50.844;4.396;2022-09-02T09:58:26;5.25;;;2.38;;
23159;SDS011;11748;50.844;4.396;2022-09-02T10:00:55;3.72;;;2.45;;
23159;SDS011;11748;50.844;4.396;2022-09-02T10:03:26;6.07;;;2.05;;
23159;SDS011;11748;50.844;4.396;2022-09-02T10:06:15;4.05;;;2.90;;
23159;SDS011;11748;50.844;4.396;2022-09-02T10:11:52;3.83;;;2.50;;
23159;SDS011;11748;50.844;4.396;2022-09-02T10:14:30;4.25;;;2.30;;
23159;SDS011;11748;50.844;4.396;2022-09-02T10:19:44;5.25;;;2.35;;
23159;SDS011;11748;50.844;4.396;2022-09-02T10:33:18;2.50;;;2.10;;
23159;SDS011;11748;50.844;4.396;2022-09-02T10:38:53;3.67;;;2.42;;
23159;SDS011;11748;50.844;4.396;2022-09-02T10:41:38;2.58;;;2.25;;
23159;SDS011;11748;50.844;4.396;2022-09-02T10:44:27;3.00;;;2.33;;
23159;SDS011;11748;50.844;4.396;2022-09-02T10:47:02;2.50;;;2.30;;
23159;SDS011;11748;50.844;4.396;2022-09-02T10:49:41;3.95;;;2.35;;
23159;SDS011;11748;50.844;4.396;2022-09-02T10:57:42;3.50;;;1.77;;
23159;SDS011;11748;50.844;4.396;2022-09-02T11:00:17;2.72;;;2.15;;
23159;SDS011;11748;50.844;4.396;2022-09-02T11:02:47;3.83;;;2.10;;
23159;SDS011;11748;50.844;4.396;2022-09-02T11:06:02;6.00;;;1.90;;
23159;SDS011;11748;50.844;4.396;2022-09-02T11:11:19;2.20;;;1.90;;
23159;SDS011;11748;50.844;4.396;2022-09-02T11:16:47;2.20;;;1.85;;
23159;SDS011;11748;50.844;4.396;2022-09-02T11:19:39;3.72;;;2.28;;
23159;SDS011;11748;50.844;4.396;2022-09-02T11:25:01;2.47;;;2.15;;
23159;SDS011;11748;50.844;4.396;2022-09-02T11:35:48;4.90;;;2.00;;
23159;SDS011;11748;50.844;4.396;2022-09-02T11:43:57;2.92;;;1.40;;
23159;SDS011;11748;50.844;4.396;2022-09-02T11:46:41;3.70;;;1.60;;
23159;SDS011;11748;50.844;4.396;2022-09-02T11:55:07;3.05;;;1.42;;
23159;SDS011;11748;50.844;4.396;2022-09-02T11:57:39;5.88;;;1.40;;
23159;SDS011;11748;50.844;4.396;2022-09-02T12:00:07;1.88;;;1.30;;
23159;SDS011;11748;50.844;4.396;2022-09-02T12:05:49;2.33;;;1.35;;
23159;SDS011;11748;50.844;4.396;2022-09-02T12:17:05;2.58;;;1.30;;
23159;SDS011;11748;50.844;4.396;2022-09-02T12:24:59;2.70;;;1.33;;
23159;SDS011;11748;50.844;4.396;2022-09-02T12:29:57;2.75;;;1.50;;
23159;SDS011;11748;50.844;4.396;2022-09-02T12:35:48;3.05;;;1.70;;
23159;SDS011;11748;50.844;4.396;2022-09-02T12:40:37;3.03;;;1.30;;
23159;SDS011;11748;50.844;4.396;2022-09-02T12:43:31;2.53;;;1.10;;
23159;SDS011;11748;50.844;4.396;2022-09-02T12:49:04;1.95;;;1.23;;
23159;SDS011;11748;50.844;4.396;2022-09-02T12:54:44;3.97;;;1.58;;
23159;SDS011;11748;50.844;4.396;2022-09-02T12:57:13;3.50;;;1.50;;
23159;SDS011;11748;50.844;4.396;2022-09-02T12:59:43;2.42;;;1.20;;
23159;SDS011;11748;50.844;4.396;2022-09-02T13:08:58;1.65;;;1.10;;
23159;SDS011;11748;50.844;4.396;2022-09-02T13:20:08;3.47;;;1.20;;
23159;SDS011;11748;50.844;4.396;2022-09-02T13:22:43;1.23;;;1.10;;
23159;SDS011;11748;50.844;4.396;2022-09-02T13:33:45;3.92;;;1.15;;
23159;SDS011;11748;50.844;4.396;2022-09-02T13:36:17;1.65;;;1.08;;
23159;SDS011;11748;50.844;4.396;2022-09-02T13:38:50;4.47;;;1.20;;
23159;SDS011;11748;50.844;4.396;2022-09-02T13:41:29;1.33;;;1.17;;
23159;SDS011;11748;50.844;4.396;2022-09-02T13:44:06;2.25;;;1.55;;
23159;SDS011;11748;50.844;4.396;2022-09-02T13:46:44;2.13;;;1.00;;
23159;SDS011;11748;50.844;4.396;2022-09-02T13:49:21;2.10;;;1.00;;
23159;SDS011;11748;50.844;4.396;2022-09-02T13:52:00;1.77;;;1.05;;
23159;SDS011;11748;50.844;4.396;2022-09-02T13:54:33;3.10;;;1.10;;
23159;SDS011;11748;50.844;4.396;2022-09-02T13:57:05;3.45;;;1.23;;
23159;SDS011;11748;50.844;4.396;2022-09-02T13:59:38;2.55;;;1.20;;
23159;SDS011;11748;50.844;4.396;2022-09-02T14:02:25;1.17;;;1.05;;
23159;SDS011;11748;50.844;4.396;2022-09-02T14:04:55;1.27;;;0.85;;
23159;SDS011;11748;50.844;4.396;2022-09-02T14:07:27;1.63;;;1.40;;
23159;SDS011;11748;50.844;4.396;2022-09-02T14:10:16;2.97;;;1.20;;
23159;SDS011;11748;50.844;4.396;2022-09-02T14:12:44;4.88;;;1.38;;
23159;SDS011;11748;50.844;4.396;2022-09-02T14:15:12;2.22;;;1.10;;
23159;SDS011;11748;50.844;4.396;2022-09-02T14:17:39;1.27;;;1.17;;
23159;SDS011;11748;50.844;4.396;2022-09-02T14:22:40;4.53;;;1.20;;
23159;SDS011;11748;50.844;4.396;2022-09-02T14:25:15;2.15;;;1.08;;
23159;SDS011;11748;50.844;4.396;2022-09-02T14:30:57;2.83;;;1.33;;
23159;SDS011;11748;50.844;4.396;2022-09-02T14:38:54;1.20;;;1.10;;
23159;SDS011;11748;50.844;4.396;2022-09-02T14:41:34;3.30;;;0.90;;
23159;SDS011;11748;50.844;4.396;2022-09-02T14:46:50;1.70;;;0.90;;
23159;SDS011;11748;50.844;4.396;2022-09-02T14:49:35;5.10;;;1.20;;
23159;SDS011;11748;50.844;4.396;2022-09-02T14:52:14;3.35;;;1.05;;
23159;SDS011;11748;50.844;4.396;2022-09-02T14:54:57;6.78;;;1.00;;
23159;SDS011;11748;50.844;4.396;2022-09-02T14:57:32;2.58;;;1.00;;
23159;SDS011;11748;50.844;4.396;2022-09-02T15:00:09;1.15;;;0.93;;
23159;SDS011;11748;50.844;4.396;2022-09-02T15:02:40;0.90;;;0.90;;
23159;SDS011;11748;50.844;4.396;2022-09-02T15:05:09;1.90;;;0.77;;
23159;SDS011;11748;50.844;4.396;2022-09-02T15:07:38;3.63;;;1.10;;
23159;SDS011;11748;50.844;4.396;2022-09-02T15:10:05;4.72;;;1.17;;
23159;SDS011;11748;50.844;4.396;2022-09-02T15:12:36;2.63;;;1.05;;
23159;SDS011;11748;50.844;4.396;2022-09-02T15:15:05;4.13;;;1.02;;
23159;SDS011;11748;50.844;4.396;2022-09-02T15:17:31;4.70;;;1.40;;
23159;SDS011;11748;50.844;4.396;2022-09-02T15:19:57;2.17;;;0.90;;
23159;SDS011;11748;50.844;4.396;2022-09-02T15:22:25;2.38;;;1.00;;
23159;SDS011;11748;50.844;4.396;2022-09-02T15:24:51;1.05;;;0.90;;
23159;SDS011;11748;50.844;4.396;2022-09-02T15:27:17;1.60;;;1.00;;
23159;SDS011;11748;50.844;4.396;2022-09-02T15:29:42;1.88;;;0.90;;
23159;SDS011;11748;50.844;4.396;2022-09-02T15:32:08;1.42;;;0.85;;
23159;SDS011;11748;50.844;4.396;2022-09-02T15:34:35;1.48;;;1.20;;
23159;SDS011;11748;50.844;4.396;2022-09-02T15:37:01;1.75;;;1.00;;
23159;SDS011;11748;50.844;4.396;2022-09-02T15:39:26;4.30;;;1.27;;
23159;SDS011;11748;50.844;4.396;2022-09-02T15:41:53;1.20;;;1.10;;
23159;SDS011;11748;50.844;4.396;2022-09-02T15:44:22;2.30;;;0.77;;
23159;SDS011;11748;50.844;4.396;2022-09-02T15:47:01;5.05;;;1.10;;
23159;SDS011;11748;50.844;4.396;2022-09-02T15:49:33;2.08;;;1.23;;
23159;SDS011;11748;50.844;4.396;2022-09-02T15:54:30;7.53;;;1.23;;
23159;SDS011;11748;50.844;4.396;2022-09-02T15:59:30;1.40;;;1.00;;
23159;SDS011;11748;50.844;4.396;2022-09-02T16:02:10;1.20;;;1.08;;
23159;SDS011;11748;50.844;4.396;2022-09-02T16:04:36;3.38;;;0.98;;
23159;SDS011;11748;50.844;4.396;2022-09-02T16:07:02;2.58;;;0.90;;
23159;SDS011;11748;50.844;4.396;2022-09-02T16:09:28;2.08;;;0.90;;
23159;SDS011;11748;50.844;4.396;2022-09-02T16:11:54;4.32;;;1.25;;
23159;SDS011;11748;50.844;4.396;2022-09-02T16:14:21;4.80;;;1.13;;
23159;SDS011;11748;50.844;4.396;2022-09-02T16:16:49;3.47;;;1.20;;
23159;SDS011;11748;50.844;4.396;2022-09-02T16:19:21;2.92;;;1.10;;
23159;SDS011;11748;50.844;4.396;2022-09-02T16:24:34;2.65;;;1.20;;
23159;SDS011;11748;50.844;4.396;2022-09-02T16:27:00;1.65;;;0.95;;
23159;SDS011;11748;50.844;4.396;2022-09-02T16:32:00;4.07;;;1.45;;
23159;SDS011;11748;50.844;4.396;2022-09-02T16:34:26;3.85;;;1.30;;
23159;SDS011;11748;50.844;4.396;2022-09-02T16:36:58;1.02;;;0.93;;
23159;SDS011;11748;50.844;4.396;2022-09-02T16:39:24;5.78;;;1.55;;
23159;SDS011;11748;50.844;4.396;2022-09-02T16:41:53;2.33;;;1.17;;
23159;SDS011;11748;50.844;4.396;2022-09-02T16:44:25;3.95;;;1.15;;
23159;SDS011;11748;50.844;4.396;2022-09-02T16:46:51;2.65;;;1.33;;
23159;SDS011;11748;50.844;4.396;2022-09-02T16:49:18;3.33;;;1.40;;
23159;SDS011;11748;50.844;4.396;2022-09-02T16:51:45;3.95;;;1.80;;
23159;SDS011;11748;50.844;4.396;2022-09-02T16:54:12;5.63;;;1.10;;
23159;SDS011;11748;50.844;4.396;2022-09-02T16:56:38;3.33;;;1.00;;
23159;SDS011;11748;50.844;4.396;2022-09-02T16:59:08;4.97;;;1.20;;
23159;SDS011;11748;50.844;4.396;2022-09-02T17:01:36;2.88;;;1.40;;
23159;SDS011;11748;50.844;4.396;2022-09-02T17:04:02;2.83;;;1.50;;
23159;SDS011;11748;50.844;4.396;2022-09-02T17:06:29;1.73;;;1.10;;
23159;SDS011;11748;50.844;4.396;2022-09-02T17:08:55;3.42;;;1.70;;
23159;SDS011;11748;50.844;4.396;2022-09-02T17:11:25;3.35;;;1.38;;
23159;SDS011;11748;50.844;4.396;2022-09-02T17:14:02;2.25;;;1.20;;
23159;SDS011;11748;50.844;4.396;2022-09-02T17:16:31;2.65;;;1.20;;
23159;SDS011;11748;50.844;4.396;2022-09-02T17:19:03;4.97;;;1.58;;
23159;SDS011;11748;50.844;4.396;2022-09-02T17:21:46;3.33;;;1.10;;
23159;SDS011;11748;50.844;4.396;2022-09-02T17:24:23;5.32;;;1.75;;
23159;SDS011;11748;50.844;4.396;2022-09-02T17:29:38;4.93;;;1.55;;
23159;SDS011;11748;50.844;4.396;2022-09-02T17:34:38;4.35;;;1.90;;
23159;SDS011;11748;50.844;4.396;2022-09-02T17:37:21;3.90;;;2.75;;
23159;SDS011;11748;50.844;4.396;2022-09-02T17:39:47;5.28;;;2.90;;
23159;SDS011;11748;50.844;4.396;2022-09-02T17:42:14;3.92;;;1.80;;
23159;SDS011;11748;50.844;4.396;2022-09-02T17:44:40;3.72;;;2.10;;
23159;SDS011;11748;50.844;4.396;2022-09-02T17:49:33;5.85;;;1.50;;
23159;SDS011;11748;50.844;4.396;2022-09-02T17:52:03;2.40;;;1.83;;
23159;SDS011;11748;50.844;4.396;2022-09-02T17:54:34;8.25;;;1.70;;
23159;SDS011;11748;50.844;4.396;2022-09-02T18:07:46;5.38;;;1.92;;
23159;SDS011;11748;50.844;4.396;2022-09-02T18:10:37;4.78;;;2.78;;
23159;SDS011;11748;50.844;4.396;2022-09-02T18:13:11;3.17;;;1.35;;
23159;SDS011;11748;50.844;4.396;2022-09-02T18:30:08;4.45;;;1.30;;
23159;SDS011;11748;50.844;4.396;2022-09-02T18:38:52;6.63;;;2.42;;
23159;SDS011;11748;50.844;4.396;2022-09-02T18:47:30;6.60;;;2.40;;
23159;SDS011;11748;50.844;4.396;2022-09-02T18:53:10;5.65;;;2.20;;
23159;SDS011;11748;50.844;4.396;2022-09-02T18:55:37;8.00;;;3.17;;
23159;SDS011;11748;50.844;4.396;2022-09-02T19:03:37;6.65;;;2.72;;
23159;SDS011;11748;50.844;4.396;2022-09-02T19:06:21;5.80;;;2.85;;
23159;SDS011;11748;50.844;4.396;2022-09-02T19:09:00;4.32;;;2.88;;
23159;SDS011;11748;50.844;4.396;2022-09-02T19:11:37;8.57;;;3.40;;
23159;SDS011;11748;50.844;4.396;2022-09-02T19:19:24;8.07;;;3.45;;
23159;SDS011;11748;50.844;4.396;2022-09-02T19:22:04;5.15;;;2.60;;
23159;SDS011;11748;50.844;4.396;2022-09-02T19:24:35;4.18;;;3.22;;
23159;SDS011;11748;50.844;4.396;2022-09-02T19:27:12;8.85;;;3.20;;
23159;SDS011;11748;50.844;4.396;2022-09-02T19:29:43;8.43;;;3.60;;
23159;SDS011;11748;50.844;4.396;2022-09-02T19:32:14;4.78;;;3.00;;
23159;SDS011;11748;50.844;4.396;2022-09-02T19:34:41;6.38;;;3.30;;
23159;SDS011;11748;50.844;4.396;2022-09-02T19:37:09;7.53;;;3.35;;
23159;SDS011;11748;50.844;4.396;2022-09-02T19:39:37;9.70;;;3.63;;
23159;SDS011;11748;50.844;4.396;2022-09-02T19:42:03;6.57;;;3.58;;
23159;SDS011;11748;50.844;4.396;2022-09-02T19:44:30;4.55;;;3.20;;
23159;SDS011;11748;50.844;4.396;2022-09-02T19:46:56;5.68;;;2.72;;
23159;SDS011;11748;50.844;4.396;2022-09-02T19:49:23;4.50;;;1.70;;
23159;SDS011;11748;50.844;4.396;2022-09-02T19:51:49;9.52;;;2.30;;
23159;SDS011;11748;50.844;4.396;2022-09-02T19:54:16;6.35;;;2.20;;
23159;SDS011;11748;50.844;4.396;2022-09-02T19:56:42;5.82;;;1.70;;
23159;SDS011;11748;50.844;4.396;2022-09-02T19:59:09;5.90;;;1.83;;
23159;SDS011;11748;50.844;4.396;2022-09-02T20:01:35;3.67;;;1.80;;
23159;SDS011;11748;50.844;4.396;2022-09-02T20:04:02;1.48;;;1.38;;
23159;SDS011;11748;50.844;4.396;2022-09-02T20:06:30;4.43;;;1.70;;
23159;SDS011;11748;50.844;4.396;2022-09-02T20:08:56;3.20;;;1.98;;
23159;SDS011;11748;50.844;4.396;2022-09-02T20:11:22;5.57;;;2.42;;
23159;SDS011;11748;50.844;4.396;2022-09-02T20:13:48;4.82;;;1.30;;
23159;SDS011;11748;50.844;4.396;2022-09-02T20:16:19;3.25;;;1.38;;
23159;SDS011;11748;50.844;4.396;2022-09-02T20:18:48;5.18;;;1.70;;
23159;SDS011;11748;50.844;4.396;2022-09-02T20:21:22;3.65;;;1.63;;
23159;SDS011;11748;50.844;4.396;2022-09-02T20:23:57;5.20;;;1.92;;
23159;SDS011;11748;50.844;4.396;2022-09-02T20:35:14;5.20;;;1.77;;
23159;SDS011;11748;50.844;4.396;2022-09-02T20:49:34;5.38;;;1.45;;
23159;SDS011;11748;50.844;4.396;2022-09-02T20:54:37;4.03;;;1.50;;
23159;SDS011;11748;50.844;4.396;2022-09-02T21:00:06;3.92;;;1.35;;
23159;SDS011;11748;50.844;4.396;2022-09-02T21:02:46;3.63;;;1.27;;
23159;SDS011;11748;50.844;4.396;2022-09-02T21:05:28;5.13;;;1.40;;